Time,TemperatureF,DewpointF,PressureIn,WindDirection,WindDirectionDegrees,WindSpeedMPH,WindSpeedGustMPH,Humidity,HourlyPrecipIn,Conditions,Clouds,dailyrainin,SoftwareType,DateUTC
2013-04-25 00:11:00,48.6,42.0,30.20,NNW,346,0.0,1.0,77,0.00,,,0.00,weatherlink.com 1.10,2013-04-25 04:11:00,
2013-04-25 00:26:00,48.5,42.0,30.20,NW,311,0.0,3.0,78,0.00,,,0.00,weatherlink.com 1.10,2013-04-25 04:26:00,
2013-04-25 00:56:00,47.9,39.0,30.20,North,350,0.0,4.0,72,0.01,,,0.01,weatherlink.com 1.10,2013-04-25 04:56:00,
2013-04-25 01:11:00,47.6,39.0,30.21,NW,309,1.0,3.0,73,0.01,,,0.01,weatherlink.com 1.10,2013-04-25 05:11:00,
2013-04-25 01:26:00,47.4,40.0,30.21,SE,134,0.0,5.0,74,0.01,,,0.01,weatherlink.com 1.10,2013-04-25 05:26:00,
2013-04-25 01:41:00,47.3,39.0,30.21,NE,53,0.0,3.0,73,0.00,,,0.01,weatherlink.com 1.10,2013-04-25 05:41:00,
2013-04-25 02:11:00,46.6,39.0,30.21,NNW,338,0.0,4.0,76,0.00,,,0.01,weatherlink.com 1.10,2013-04-25 06:11:00,
2013-04-25 02:26:00,46.1,39.0,30.20,WNW,287,0.0,2.0,77,0.00,,,0.01,weatherlink.com 1.10,2013-04-25 06:26:00,
2013-04-25 02:41:00,45.4,39.0,30.20,NW,309,2.0,2.0,77,0.00,,,0.01,weatherlink.com 1.10,2013-04-25 06:41:00,
2013-04-25 02:56:00,44.6,38.0,30.20,NW,318,0.0,1.0,78,0.00,,,0.01,weatherlink.com 1.10,2013-04-25 06:56:00,
2013-04-25 03:26:00,43.4,38.0,30.20,NNE,14,0.0,1.0,80,0.00,,,0.01,weatherlink.com 1.10,2013-04-25 07:26:00,
2013-04-25 03:56:00,43.5,37.0,30.20,NW,309,0.0,1.0,79,0.00,,,0.01,weatherlink.com 1.10,2013-04-25 07:56:00,
2013-04-25 04:26:00,42.2,37.0,30.20,NW,309,0.0,0.0,82,0.00,,,0.01,weatherlink.com 1.10,2013-04-25 08:26:00,
2013-04-25 04:41:00,41.2,37.0,30.20,NW,309,0.0,0.0,85,0.00,,,0.01,weatherlink.com 1.10,2013-04-25 08:41:00,
2013-04-25 04:56:00,40.2,36.0,30.20,NW,309,0.0,0.0,86,0.00,,,0.01,weatherlink.com 1.10,2013-04-25 08:56:00,
2013-04-25 05:12:00,39.3,36.0,30.21,NW,309,0.0,0.0,88,0.00,,,0.01,weatherlink.com 1.10,2013-04-25 09:12:00,
2013-04-25 05:27:00,38.9,36.0,30.21,North,355,0.0,2.0,89,0.00,,,0.01,weatherlink.com 1.10,2013-04-25 09:27:00,
2013-04-25 05:42:00,39.4,36.0,30.21,SE,124,0.0,0.0,87,0.00,,,0.01,weatherlink.com 1.10,2013-04-25 09:42:00,
2013-04-25 05:57:00,39.6,36.0,30.21,SE,125,0.0,0.0,86,0.00,,,0.01,weatherlink.com 1.10,2013-04-25 09:57:00,
2013-04-25 06:12:00,39.0,35.0,30.22,ESE,123,0.0,0.0,86,0.00,,,0.01,weatherlink.com 1.10,2013-04-25 10:12:00,
2013-04-25 06:27:00,38.2,35.0,30.22,SE,124,0.0,0.0,88,0.00,,,0.01,weatherlink.com 1.10,2013-04-25 10:27:00,
2013-04-25 06:42:00,37.5,35.0,30.23,ESE,123,0.0,0.0,89,0.00,,,0.01,weatherlink.com 1.10,2013-04-25 10:42:00,
2013-04-25 06:57:00,37.0,34.0,30.23,SE,125,0.0,0.0,90,0.00,,,0.01,weatherlink.com 1.10,2013-04-25 10:57:00,
2013-04-25 07:12:00,36.4,34.0,30.23,ESE,123,0.0,0.0,91,0.00,,,0.01,weatherlink.com 1.10,2013-04-25 11:12:00,
2013-04-25 07:27:00,36.2,34.0,30.24,ESE,123,0.0,0.0,92,0.00,,,0.01,weatherlink.com 1.10,2013-04-25 11:27:00,
2013-04-25 07:42:00,36.6,35.0,30.24,ESE,123,0.0,0.0,93,0.00,,,0.01,weatherlink.com 1.10,2013-04-25 11:42:00,
2013-04-25 07:57:00,38.4,37.0,30.26,ESE,121,0.0,2.0,93,0.00,,,0.01,weatherlink.com 1.10,2013-04-25 11:57:00,
2013-04-25 08:12:00,40.6,38.0,30.26,ESE,115,0.0,2.0,89,0.00,,,0.01,weatherlink.com 1.10,2013-04-25 12:12:00,
2013-04-25 08:27:00,43.4,38.0,30.26,NW,317,0.0,5.0,81,0.00,,,0.01,weatherlink.com 1.10,2013-04-25 12:27:00,
2013-04-25 08:42:00,46.2,39.0,30.26,NE,37,0.0,3.0,76,0.00,,,0.01,weatherlink.com 1.10,2013-04-25 12:42:00,
2013-04-25 08:57:00,49.4,39.0,30.28,NW,317,0.0,5.0,68,0.00,,,0.01,weatherlink.com 1.10,2013-04-25 12:57:00,
2013-04-25 09:12:00,51.3,40.0,30.28,West,263,0.0,7.0,65,0.00,,,0.01,weatherlink.com 1.10,2013-04-25 13:12:00,
2013-04-25 09:27:00,52.4,40.0,30.28,NNW,335,0.0,9.0,63,0.00,,,0.01,weatherlink.com 1.10,2013-04-25 13:27:00,
2013-04-25 09:57:00,54.1,41.0,30.29,NW,306,0.0,6.0,61,0.00,,,0.01,weatherlink.com 1.10,2013-04-25 13:57:00,
2013-04-25 10:12:00,55.1,40.0,30.30,SSE,158,2.0,7.0,58,0.00,,,0.01,weatherlink.com 1.10,2013-04-25 14:12:00,
2013-04-25 10:27:00,55.9,42.0,30.30,WNW,295,1.0,10.0,61,0.00,,,0.01,weatherlink.com 1.10,2013-04-25 14:27:00,
2013-04-25 10:42:00,57.3,42.0,30.31,SSE,165,2.0,4.0,56,0.00,,,0.01,weatherlink.com 1.10,2013-04-25 14:42:00,
2013-04-25 10:57:00,56.9,40.0,30.31,NW,308,1.0,5.0,54,0.00,,,0.01,weatherlink.com 1.10,2013-04-25 14:57:00,
2013-04-25 11:13:00,58.2,41.0,30.31,ESE,122,4.0,5.0,53,0.00,,,0.01,weatherlink.com 1.10,2013-04-25 15:13:00,
2013-04-25 11:28:00,59.0,42.0,30.31,NW,323,1.0,5.0,53,0.00,,,0.01,weatherlink.com 1.10,2013-04-25 15:28:00,
2013-04-25 11:43:00,59.4,42.0,30.31,ESE,112,2.0,9.0,52,0.00,,,0.01,weatherlink.com 1.10,2013-04-25 15:43:00,
2013-04-25 11:58:00,59.0,41.0,30.31,SE,138,4.0,7.0,52,0.00,,,0.01,weatherlink.com 1.10,2013-04-25 15:58:00,
2013-04-25 12:13:00,59.0,42.0,30.32,South,171,0.0,5.0,53,0.00,,,0.01,weatherlink.com 1.10,2013-04-25 16:13:00,
2013-04-25 12:28:00,61.1,41.0,30.31,WNW,295,2.0,6.0,48,0.00,,,0.01,weatherlink.com 1.10,2013-04-25 16:28:00,
2013-04-25 12:43:00,61.9,43.0,30.31,ESE,105,1.0,5.0,51,0.00,,,0.01,weatherlink.com 1.10,2013-04-25 16:43:00,
2013-04-25 12:58:00,61.8,42.0,30.30,ESE,119,1.0,4.0,49,0.00,,,0.01,weatherlink.com 1.10,2013-04-25 16:58:00,
2013-04-25 13:13:00,61.3,42.0,30.30,SSE,157,3.0,8.0,49,0.00,,,0.01,weatherlink.com 1.10,2013-04-25 17:13:00,
2013-04-25 13:28:00,61.0,41.0,30.30,SE,146,3.0,7.0,49,0.00,,,0.01,weatherlink.com 1.10,2013-04-25 17:28:00,
2013-04-25 13:43:00,61.1,41.0,30.29,SE,127,2.0,7.0,48,0.00,,,0.01,weatherlink.com 1.10,2013-04-25 17:43:00,
2013-04-25 13:58:00,62.3,43.0,30.29,East,100,6.0,9.0,49,0.00,,,0.01,weatherlink.com 1.10,2013-04-25 17:58:00,
2013-04-25 14:13:00,62.6,40.0,30.28,SE,142,1.0,8.0,43,0.00,,,0.01,weatherlink.com 1.10,2013-04-25 18:13:00,
2013-04-25 14:28:00,62.3,41.0,30.28,SE,134,10.0,10.0,45,0.00,,,0.01,weatherlink.com 1.10,2013-04-25 18:28:00,
2013-04-25 14:58:00,64.1,40.0,30.28,SSE,164,3.0,6.0,41,0.00,,,0.01,weatherlink.com 1.10,2013-04-25 18:58:00,
2013-04-25 15:13:00,64.2,40.0,30.27,ESE,102,2.0,8.0,42,0.00,,,0.01,weatherlink.com 1.10,2013-04-25 19:13:00,
2013-04-25 15:28:00,64.5,40.0,30.27,SE,140,6.0,9.0,40,0.00,,,0.01,weatherlink.com 1.10,2013-04-25 19:28:00,
2013-04-25 15:58:00,65.5,39.0,30.25,SE,145,4.0,9.0,38,0.00,,,0.01,weatherlink.com 1.10,2013-04-25 19:58:00,
2013-04-25 16:13:00,66.0,41.0,30.25,ESE,117,0.0,5.0,40,0.00,,,0.01,weatherlink.com 1.10,2013-04-25 20:13:00,
2013-04-25 16:28:00,66.2,40.0,30.25,ESE,121,0.0,6.0,39,0.00,,,0.01,weatherlink.com 1.10,2013-04-25 20:28:00,
2013-04-25 16:43:00,66.4,40.0,30.24,SE,146,0.0,8.0,38,0.00,,,0.01,weatherlink.com 1.10,2013-04-25 20:43:00,
2013-04-25 17:13:00,67.4,41.0,30.25,NW,317,1.0,3.0,38,0.00,,,0.01,weatherlink.com 1.10,2013-04-25 21:13:00,
2013-04-25 17:28:00,69.2,34.0,30.25,SW,226,0.0,6.0,27,0.00,,,0.01,weatherlink.com 1.10,2013-04-25 21:28:00,
2013-04-25 17:43:00,69.3,37.0,30.25,NW,310,2.0,4.0,31,0.00,,,0.01,weatherlink.com 1.10,2013-04-25 21:43:00,
2013-04-25 17:58:00,69.1,35.0,30.25,NW,324,1.0,5.0,29,0.00,,,0.01,weatherlink.com 1.10,2013-04-25 21:58:00,
2013-04-25 18:13:00,68.9,35.0,30.25,NW,307,0.0,6.0,29,0.00,,,0.01,weatherlink.com 1.10,2013-04-25 22:13:00,
2013-04-25 18:28:00,68.7,33.0,30.26,WNW,298,0.0,6.0,27,0.00,,,0.01,weatherlink.com 1.10,2013-04-25 22:28:00,
2013-04-25 18:43:00,67.8,32.0,30.26,NW,320,0.0,6.0,27,0.00,,,0.01,weatherlink.com 1.10,2013-04-25 22:43:00,
2013-04-25 18:58:00,67.2,34.0,30.25,NNW,341,0.0,4.0,29,0.00,,,0.01,weatherlink.com 1.10,2013-04-25 22:58:00,
2013-04-25 19:13:00,66.4,35.0,30.25,NW,304,0.0,4.0,31,0.00,,,0.01,weatherlink.com 1.10,2013-04-25 23:13:00,
2013-04-25 19:28:00,65.2,35.0,30.25,North,349,0.0,2.0,33,0.00,,,0.01,weatherlink.com 1.10,2013-04-25 23:28:00,
2013-04-25 19:43:00,64.1,35.0,30.26,North,349,0.0,1.0,34,0.00,,,0.01,weatherlink.com 1.10,2013-04-25 23:43:00,
2013-04-25 19:58:00,62.7,36.0,30.26,North,349,0.0,1.0,37,0.00,,,0.01,weatherlink.com 1.10,2013-04-25 23:58:00,
2013-04-25 20:13:00,60.6,37.0,30.26,ENE,59,0.0,1.0,41,0.00,,,0.01,weatherlink.com 1.10,2013-04-26 00:13:00,
2013-04-25 20:28:00,58.3,38.0,30.26,ENE,59,0.0,0.0,47,0.00,,,0.01,weatherlink.com 1.10,2013-04-26 00:28:00,
2013-04-25 20:43:00,56.2,37.0,30.26,ENE,59,0.0,0.0,49,0.00,,,0.01,weatherlink.com 1.10,2013-04-26 00:43:00,
2013-04-25 20:58:00,54.1,38.0,30.27,ENE,59,0.0,0.0,54,0.00,,,0.01,weatherlink.com 1.10,2013-04-26 00:58:00,
2013-04-25 21:13:00,52.3,38.0,30.27,ENE,59,0.0,0.0,58,0.00,,,0.01,weatherlink.com 1.10,2013-04-26 01:13:00,
2013-04-25 21:28:00,50.7,38.0,30.28,ENE,61,0.0,2.0,62,0.00,,,0.01,weatherlink.com 1.10,2013-04-26 01:28:00,
2013-04-25 21:43:00,49.7,38.0,30.29,ENE,60,0.0,0.0,64,0.00,,,0.01,weatherlink.com 1.10,2013-04-26 01:43:00,
2013-04-25 21:58:00,48.8,38.0,30.30,ENE,61,0.0,0.0,66,0.00,,,0.01,weatherlink.com 1.10,2013-04-26 01:58:00,
2013-04-25 22:13:00,47.8,39.0,30.30,ENE,61,0.0,0.0,71,0.00,,,0.01,weatherlink.com 1.10,2013-04-26 02:13:00,
2013-04-25 22:28:00,46.8,38.0,30.31,ENE,61,0.0,0.0,72,0.00,,,0.01,weatherlink.com 1.10,2013-04-26 02:28:00,
2013-04-25 22:43:00,46.6,38.0,30.31,ENE,65,0.0,2.0,72,0.00,,,0.01,weatherlink.com 1.10,2013-04-26 02:43:00,
2013-04-25 22:58:00,47.0,38.0,30.31,ENE,64,0.0,2.0,70,0.00,,,0.01,weatherlink.com 1.10,2013-04-26 02:58:00,
2013-04-25 23:13:00,46.6,37.0,30.32,ENE,65,0.0,1.0,70,0.00,,,0.01,weatherlink.com 1.10,2013-04-26 03:13:00,
2013-04-25 23:28:00,46.3,37.0,30.32,ENE,65,0.0,0.0,71,0.00,,,0.01,weatherlink.com 1.10,2013-04-26 03:28:00,
2013-04-25 23:43:00,45.6,37.0,30.32,ENE,65,0.0,1.0,71,0.00,,,0.01,weatherlink.com 1.10,2013-04-26 03:43:00,
2013-04-25 23:59:00,45.2,37.0,30.32,ENE,65,0.0,0.0,74,0.00,,,0.01,weatherlink.com 1.10,2013-04-26 03:59:00,